sensor_id;sensor_type;location;lat;lon;timestamp;P1;durP1;ratioP1;P2;durP2;ratioP2
42614;SDS011;28754;47.700;7.924;2023-08-01T00:01:35;4.43;;;2.55;;
42614;SDS011;28754;47.700;7.924;2023-08-01T00:04:22;4.38;;;2.35;;
42614;SDS011;28754;47.700;7.924;2023-08-01T00:07:09;5.88;;;2.60;;
42614;SDS011;28754;47.700;7.924;2023-08-01T00:09:56;5.80;;;2.70;;
42614;SDS011;28754;47.700;7.924;2023-08-01T00:12:43;8.18;;;2.67;;
42614;SDS011;28754;47.700;7.924;2023-08-01T00:15:29;8.05;;;3.38;;
42614;SDS011;28754;47.700;7.924;2023-08-01T00:18:19;4.85;;;2.58;;
42614;SDS011;28754;47.700;7.924;2023-08-01T00:21:05;3.25;;;2.10;;
42614;SDS011;28754;47.700;7.924;2023-08-01T00:23:55;4.00;;;2.28;;
42614;SDS011;28754;47.700;7.924;2023-08-01T00:26:42;4.18;;;2.45;;
42614;SDS011;28754;47.700;7.924;2023-08-01T00:29:29;5.25;;;2.92;;
42614;SDS011;28754;47.700;7.924;2023-08-01T00:32:16;6.32;;;2.53;;
42614;SDS011;28754;47.700;7.924;2023-08-01T00:35:04;3.45;;;2.00;;
42614;SDS011;28754;47.700;7.924;2023-08-01T00:37:51;4.20;;;2.05;;
42614;SDS011;28754;47.700;7.924;2023-08-01T00:40:38;4.10;;;2.30;;
42614;SDS011;28754;47.700;7.924;2023-08-01T00:43:25;3.53;;;2.13;;
42614;SDS011;28754;47.700;7.924;2023-08-01T00:46:12;6.43;;;2.60;;
42614;SDS011;28754;47.700;7.924;2023-08-01T00:48:59;5.95;;;2.50;;
42614;SDS011;28754;47.700;7.924;2023-08-01T00:51:46;4.43;;;2.00;;
42614;SDS011;28754;47.700;7.924;2023-08-01T00:54:34;3.58;;;2.17;;
42614;SDS011;28754;47.700;7.924;2023-08-01T00:57:25;5.07;;;2.63;;
42614;SDS011;28754;47.700;7.924;2023-08-01T01:00:12;4.57;;;3.05;;
42614;SDS011;28754;47.700;7.924;2023-08-01T01:02:59;4.60;;;2.20;;
42614;SDS011;28754;47.700;7.924;2023-08-01T01:05:57;5.93;;;2.72;;
42614;SDS011;28754;47.700;7.924;2023-08-01T01:09:15;3.15;;;1.88;;
42614;SDS011;28754;47.700;7.924;2023-08-01T01:12:03;4.95;;;2.20;;
42614;SDS011;28754;47.700;7.924;2023-08-01T01:14:50;6.32;;;2.13;;
42614;SDS011;28754;47.700;7.924;2023-08-01T01:17:37;4.22;;;2.15;;
42614;SDS011;28754;47.700;7.924;2023-08-01T01:20:23;4.10;;;2.05;;
42614;SDS011;28754;47.700;7.924;2023-08-01T01:23:10;4.30;;;2.30;;
42614;SDS011;28754;47.700;7.924;2023-08-01T01:25:57;4.20;;;2.50;;
42614;SDS011;28754;47.700;7.924;2023-08-01T01:28:45;4.68;;;1.98;;
42614;SDS011;28754;47.700;7.924;2023-08-01T01:31:33;6.25;;;2.33;;
42614;SDS011;28754;47.700;7.924;2023-08-01T01:34:20;6.50;;;2.78;;
42614;SDS011;28754;47.700;7.924;2023-08-01T01:37:07;6.30;;;2.40;;
42614;SDS011;28754;47.700;7.924;2023-08-01T01:39:54;3.83;;;1.98;;
42614;SDS011;28754;47.700;7.924;2023-08-01T01:42:41;5.60;;;2.30;;
42614;SDS011;28754;47.700;7.924;2023-08-01T01:45:28;6.60;;;2.13;;
42614;SDS011;28754;47.700;7.924;2023-08-01T01:48:14;4.68;;;2.53;;
42614;SDS011;28754;47.700;7.924;2023-08-01T01:51:01;3.53;;;1.80;;
42614;SDS011;28754;47.700;7.924;2023-08-01T01:53:48;6.90;;;2.33;;
42614;SDS011;28754;47.700;7.924;2023-08-01T01:56:34;6.95;;;2.55;;
42614;SDS011;28754;47.700;7.924;2023-08-01T01:59:22;5.75;;;2.30;;
42614;SDS011;28754;47.700;7.924;2023-08-01T02:06:51;4.10;;;2.50;;
42614;SDS011;28754;47.700;7.924;2023-08-01T02:09:40;3.80;;;2.42;;
42614;SDS011;28754;47.700;7.924;2023-08-01T02:12:29;4.10;;;2.35;;
42614;SDS011;28754;47.700;7.924;2023-08-01T02:15:17;9.30;;;2.80;;
42614;SDS011;28754;47.700;7.924;2023-08-01T02:18:04;9.68;;;3.08;;
42614;SDS011;28754;47.700;7.924;2023-08-01T02:20:50;5.18;;;2.15;;
42614;SDS011;28754;47.700;7.924;2023-08-01T02:23:37;5.20;;;2.30;;
42614;SDS011;28754;47.700;7.924;2023-08-01T02:26:24;3.53;;;2.00;;
42614;SDS011;28754;47.700;7.924;2023-08-01T02:29:11;4.22;;;2.22;;
42614;SDS011;28754;47.700;7.924;2023-08-01T02:31:57;5.88;;;2.53;;
42614;SDS011;28754;47.700;7.924;2023-08-01T02:34:44;3.30;;;1.98;;
42614;SDS011;28754;47.700;7.924;2023-08-01T02:37:31;5.00;;;2.28;;
42614;SDS011;28754;47.700;7.924;2023-08-01T02:40:18;7.05;;;2.10;;
42614;SDS011;28754;47.700;7.924;2023-08-01T02:43:04;7.45;;;2.20;;
42614;SDS011;28754;47.700;7.924;2023-08-01T02:45:51;4.07;;;2.05;;
42614;SDS011;28754;47.700;7.924;2023-08-01T02:48:38;4.63;;;2.25;;
42614;SDS011;28754;47.700;7.924;2023-08-01T02:51:24;5.05;;;2.08;;
42614;SDS011;28754;47.700;7.924;2023-08-01T02:54:11;5.72;;;2.40;;
42614;SDS011;28754;47.700;7.924;2023-08-01T02:56:58;7.40;;;2.55;;
42614;SDS011;28754;47.700;7.924;2023-08-01T02:59:44;4.72;;;2.22;;
42614;SDS011;28754;47.700;7.924;2023-08-01T03:02:31;4.80;;;2.85;;
42614;SDS011;28754;47.700;7.924;2023-08-01T03:05:18;4.00;;;2.10;;
42614;SDS011;28754;47.700;7.924;2023-08-01T03:08:05;4.82;;;2.15;;
42614;SDS011;28754;47.700;7.924;2023-08-01T03:10:51;4.35;;;2.28;;
42614;SDS011;28754;47.700;7.924;2023-08-01T03:13:40;4.63;;;2.35;;
42614;SDS011;28754;47.700;7.924;2023-08-01T03:16:26;3.45;;;1.75;;
42614;SDS011;28754;47.700;7.924;2023-08-01T03:19:13;6.93;;;2.40;;
42614;SDS011;28754;47.700;7.924;2023-08-01T03:22:00;4.00;;;2.35;;
42614;SDS011;28754;47.700;7.924;2023-08-01T03:24:47;3.85;;;1.90;;
42614;SDS011;28754;47.700;7.924;2023-08-01T03:27:34;5.40;;;2.08;;
42614;SDS011;28754;47.700;7.924;2023-08-01T03:30:21;6.00;;;2.53;;
42614;SDS011;28754;47.700;7.924;2023-08-01T03:33:08;4.78;;;2.08;;
42614;SDS011;28754;47.700;7.924;2023-08-01T03:35:55;4.90;;;2.30;;
42614;SDS011;28754;47.700;7.924;2023-08-01T03:38:42;4.85;;;2.58;;
42614;SDS011;28754;47.700;7.924;2023-08-01T03:41:29;4.00;;;2.28;;
42614;SDS011;28754;47.700;7.924;2023-08-01T03:44:16;6.25;;;2.58;;
42614;SDS011;28754;47.700;7.924;2023-08-01T03:47:03;4.93;;;2.30;;
42614;SDS011;28754;47.700;7.924;2023-08-01T03:49:50;9.93;;;2.47;;
42614;SDS011;28754;47.700;7.924;2023-08-01T03:52:36;6.90;;;3.10;;
42614;SDS011;28754;47.700;7.924;2023-08-01T03:55:23;6.72;;;2.80;;
42614;SDS011;28754;47.700;7.924;2023-08-01T03:58:10;4.85;;;2.50;;
42614;SDS011;28754;47.700;7.924;2023-08-01T04:05:24;5.15;;;2.65;;
42614;SDS011;28754;47.700;7.924;2023-08-01T04:08:11;4.03;;;2.47;;
42614;SDS011;28754;47.700;7.924;2023-08-01T04:10:58;5.15;;;2.20;;
42614;SDS011;28754;47.700;7.924;2023-08-01T04:13:45;6.15;;;2.60;;
42614;SDS011;28754;47.700;7.924;2023-08-01T04:16:31;9.32;;;3.13;;
42614;SDS011;28754;47.700;7.924;2023-08-01T04:19:18;4.57;;;2.10;;
42614;SDS011;28754;47.700;7.924;2023-08-01T04:22:05;4.13;;;2.30;;
42614;SDS011;28754;47.700;7.924;2023-08-01T04:24:51;4.80;;;2.20;;
42614;SDS011;28754;47.700;7.924;2023-08-01T04:27:38;5.43;;;2.17;;
42614;SDS011;28754;47.700;7.924;2023-08-01T04:30:25;5.40;;;2.55;;
42614;SDS011;28754;47.700;7.924;2023-08-01T04:33:11;4.68;;;2.53;;
42614;SDS011;28754;47.700;7.924;2023-08-01T04:35:58;5.28;;;2.40;;
42614;SDS011;28754;47.700;7.924;2023-08-01T04:38:45;3.38;;;1.98;;
42614;SDS011;28754;47.700;7.924;2023-08-01T04:41:31;7.28;;;2.40;;
42614;SDS011;28754;47.700;7.924;2023-08-01T04:44:18;17.70;;;2.60;;
42614;SDS011;28754;47.700;7.924;2023-08-01T04:47:05;6.70;;;2.42;;
42614;SDS011;28754;47.700;7.924;2023-08-01T04:49:51;3.90;;;2.05;;
42614;SDS011;28754;47.700;7.924;2023-08-01T04:52:38;5.90;;;2.35;;
42614;SDS011;28754;47.700;7.924;2023-08-01T04:55:25;4.95;;;2.13;;
42614;SDS011;28754;47.700;7.924;2023-08-01T04:58:11;4.38;;;1.98;;
42614;SDS011;28754;47.700;7.924;2023-08-01T05:00:58;4.93;;;2.55;;
42614;SDS011;28754;47.700;7.924;2023-08-01T05:03:45;4.97;;;2.28;;
42614;SDS011;28754;47.700;7.924;2023-08-01T05:06:31;5.88;;;2.58;;
42614;SDS011;28754;47.700;7.924;2023-08-01T05:09:18;3.97;;;2.22;;
42614;SDS011;28754;47.700;7.924;2023-08-01T05:12:05;6.32;;;2.67;;
42614;SDS011;28754;47.700;7.924;2023-08-01T05:14:52;7.68;;;3.60;;
42614;SDS011;28754;47.700;7.924;2023-08-01T05:17:39;8.57;;;2.83;;
42614;SDS011;28754;47.700;7.924;2023-08-01T05:20:25;6.45;;;2.50;;
42614;SDS011;28754;47.700;7.924;2023-08-01T05:23:16;10.18;;;2.80;;
42614;SDS011;28754;47.700;7.924;2023-08-01T05:26:03;4.10;;;2.92;;
42614;SDS011;28754;47.700;7.924;2023-08-01T05:28:49;7.05;;;2.75;;
42614;SDS011;28754;47.700;7.924;2023-08-01T05:31:36;8.52;;;2.55;;
42614;SDS011;28754;47.700;7.924;2023-08-01T05:34:23;4.47;;;2.38;;
42614;SDS011;28754;47.700;7.924;2023-08-01T05:37:09;3.90;;;2.20;;
42614;SDS011;28754;47.700;7.924;2023-08-01T05:39:56;4.97;;;3.05;;
42614;SDS011;28754;47.700;7.924;2023-08-01T05:42:43;4.97;;;2.88;;
42614;SDS011;28754;47.700;7.924;2023-08-01T05:45:30;9.32;;;3.65;;
42614;SDS011;28754;47.700;7.924;2023-08-01T05:48:16;5.15;;;2.58;;
42614;SDS011;28754;47.700;7.924;2023-08-01T05:51:03;8.95;;;3.72;;
42614;SDS011;28754;47.700;7.924;2023-08-01T05:53:50;4.20;;;2.30;;
42614;SDS011;28754;47.700;7.924;2023-08-01T05:56:36;5.75;;;2.88;;
42614;SDS011;28754;47.700;7.924;2023-08-01T05:59:23;7.40;;;3.42;;
42614;SDS011;28754;47.700;7.924;2023-08-01T06:02:10;6.90;;;3.20;;
42614;SDS011;28754;47.700;7.924;2023-08-01T06:04:56;7.60;;;3.03;;
42614;SDS011;28754;47.700;7.924;2023-08-01T06:07:43;4.68;;;2.88;;
42614;SDS011;28754;47.700;7.924;2023-08-01T06:10:30;5.00;;;3.10;;
42614;SDS011;28754;47.700;7.924;2023-08-01T06:13:17;5.07;;;2.95;;
42614;SDS011;28754;47.700;7.924;2023-08-01T06:16:03;7.10;;;3.53;;
42614;SDS011;28754;47.700;7.924;2023-08-01T06:18:50;6.15;;;3.25;;
42614;SDS011;28754;47.700;7.924;2023-08-01T06:21:37;5.60;;;3.17;;
42614;SDS011;28754;47.700;7.924;2023-08-01T06:24:23;5.70;;;3.22;;
42614;SDS011;28754;47.700;7.924;2023-08-01T06:27:10;6.95;;;4.10;;
42614;SDS011;28754;47.700;7.924;2023-08-01T06:29:57;7.28;;;3.42;;
42614;SDS011;28754;47.700;7.924;2023-08-01T06:32:43;6.65;;;3.58;;
42614;SDS011;28754;47.700;7.924;2023-08-01T06:35:30;8.57;;;3.80;;
42614;SDS011;28754;47.700;7.924;2023-08-01T06:38:16;5.68;;;3.28;;
42614;SDS011;28754;47.700;7.924;2023-08-01T06:41:03;4.72;;;2.83;;
42614;SDS011;28754;47.700;7.924;2023-08-01T06:43:50;5.55;;;3.72;;
42614;SDS011;28754;47.700;7.924;2023-08-01T06:46:36;4.28;;;2.85;;
42614;SDS011;28754;47.700;7.924;2023-08-01T06:49:23;8.82;;;3.80;;
42614;SDS011;28754;47.700;7.924;2023-08-01T06:52:10;6.35;;;2.90;;
42614;SDS011;28754;47.700;7.924;2023-08-01T06:54:56;8.68;;;3.53;;
42614;SDS011;28754;47.700;7.924;2023-08-01T06:57:43;4.78;;;3.25;;
42614;SDS011;28754;47.700;7.924;2023-08-01T07:00:30;6.75;;;3.65;;
42614;SDS011;28754;47.700;7.924;2023-08-01T07:03:16;5.47;;;2.85;;
42614;SDS011;28754;47.700;7.924;2023-08-01T07:06:03;5.38;;;2.95;;
42614;SDS011;28754;47.700;7.924;2023-08-01T07:08:50;9.32;;;3.50;;
42614;SDS011;28754;47.700;7.924;2023-08-01T07:11:36;6.82;;;2.67;;
42614;SDS011;28754;47.700;7.924;2023-08-01T07:14:23;4.68;;;3.20;;
42614;SDS011;28754;47.700;7.924;2023-08-01T07:17:09;7.47;;;3.45;;
42614;SDS011;28754;47.700;7.924;2023-08-01T07:19:56;7.35;;;4.25;;
42614;SDS011;28754;47.700;7.924;2023-08-01T07:22:43;7.10;;;3.00;;
42614;SDS011;28754;47.700;7.924;2023-08-01T07:25:30;6.95;;;3.55;;
42614;SDS011;28754;47.700;7.924;2023-08-01T07:28:16;5.55;;;3.47;;
42614;SDS011;28754;47.700;7.924;2023-08-01T07:31:07;6.78;;;3.40;;
42614;SDS011;28754;47.700;7.924;2023-08-01T07:33:56;6.93;;;3.33;;
42614;SDS011;28754;47.700;7.924;2023-08-01T07:43:57;5.25;;;2.80;;
42614;SDS011;28754;47.700;7.924;2023-08-01T07:46:43;6.05;;;2.83;;
42614;SDS011;28754;47.700;7.924;2023-08-01T07:49:30;4.15;;;2.58;;
42614;SDS011;28754;47.700;7.924;2023-08-01T07:52:16;5.45;;;2.70;;
42614;SDS011;28754;47.700;7.924;2023-08-01T07:55:03;4.90;;;2.58;;
42614;SDS011;28754;47.700;7.924;2023-08-01T07:57:51;4.00;;;2.17;;
42614;SDS011;28754;47.700;7.924;2023-08-01T08:00:37;4.68;;;2.35;;
42614;SDS011;28754;47.700;7.924;2023-08-01T08:03:24;4.30;;;2.38;;
42614;SDS011;28754;47.700;7.924;2023-08-01T08:06:11;6.72;;;3.65;;
42614;SDS011;28754;47.700;7.924;2023-08-01T08:08:57;5.00;;;2.78;;
42614;SDS011;28754;47.700;7.924;2023-08-01T08:11:44;5.55;;;2.53;;
42614;SDS011;28754;47.700;7.924;2023-08-01T08:14:31;6.80;;;2.70;;
42614;SDS011;28754;47.700;7.924;2023-08-01T08:17:17;5.55;;;2.53;;
42614;SDS011;28754;47.700;7.924;2023-08-01T08:20:04;4.22;;;2.10;;
42614;SDS011;28754;47.700;7.924;2023-08-01T08:22:52;3.30;;;1.80;;
42614;SDS011;28754;47.700;7.924;2023-08-01T08:25:38;2.70;;;1.30;;
42614;SDS011;28754;47.700;7.924;2023-08-01T08:28:30;2.78;;;1.70;;
42614;SDS011;28754;47.700;7.924;2023-08-01T08:31:20;3.50;;;1.73;;
42614;SDS011;28754;47.700;7.924;2023-08-01T08:34:07;10.50;;;2.13;;
42614;SDS011;28754;47.700;7.924;2023-08-01T08:36:53;28.23;;;2.85;;
42614;SDS011;28754;47.700;7.924;2023-08-01T08:39:40;56.70;;;5.35;;
42614;SDS011;28754;47.700;7.924;2023-08-01T08:42:27;105.68;;;8.93;;
42614;SDS011;28754;47.700;7.924;2023-08-01T08:45:14;8.65;;;1.67;;
42614;SDS011;28754;47.700;7.924;2023-08-01T08:48:09;66.35;;;5.00;;
42614;SDS011;28754;47.700;7.924;2023-08-01T08:50:59;188.88;;;13.20;;
42614;SDS011;28754;47.700;7.924;2023-08-01T08:53:47;206.10;;;16.20;;
42614;SDS011;28754;47.700;7.924;2023-08-01T08:56:39;61.42;;;5.13;;
42614;SDS011;28754;47.700;7.924;2023-08-01T08:59:26;150.98;;;9.27;;
42614;SDS011;28754;47.700;7.924;2023-08-01T09:02:16;191.35;;;12.32;;
42614;SDS011;28754;47.700;7.924;2023-08-01T09:05:03;159.52;;;11.57;;
42614;SDS011;28754;47.700;7.924;2023-08-01T09:07:50;62.70;;;5.72;;
42614;SDS011;28754;47.700;7.924;2023-08-01T09:10:40;129.77;;;11.68;;
42614;SDS011;28754;47.700;7.924;2023-08-01T09:13:27;64.55;;;5.85;;
42614;SDS011;28754;47.700;7.924;2023-08-01T09:16:14;136.52;;;11.15;;
42614;SDS011;28754;47.700;7.924;2023-08-01T09:19:01;65.03;;;5.68;;
42614;SDS011;28754;47.700;7.924;2023-08-01T09:21:48;93.68;;;8.25;;
42614;SDS011;28754;47.700;7.924;2023-08-01T09:24:36;20.38;;;2.90;;
42614;SDS011;28754;47.700;7.924;2023-08-01T09:27:32;15.45;;;2.72;;
42614;SDS011;28754;47.700;7.924;2023-08-01T09:30:19;5.40;;;1.52;;
42614;SDS011;28754;47.700;7.924;2023-08-01T09:33:06;23.67;;;3.72;;
42614;SDS011;28754;47.700;7.924;2023-08-01T09:35:53;3.58;;;1.60;;
42614;SDS011;28754;47.700;7.924;2023-08-01T09:38:39;8.77;;;2.72;;
42614;SDS011;28754;47.700;7.924;2023-08-01T09:41:26;2.95;;;1.98;;
42614;SDS011;28754;47.700;7.924;2023-08-01T09:44:16;4.57;;;1.73;;
42614;SDS011;28754;47.700;7.924;2023-08-01T09:47:03;3.70;;;2.55;;
42614;SDS011;28754;47.700;7.924;2023-08-01T09:49:53;65.82;;;6.65;;
42614;SDS011;28754;47.700;7.924;2023-08-01T09:52:40;4.35;;;1.83;;
42614;SDS011;28754;47.700;7.924;2023-08-01T09:58:18;3.67;;;2.05;;
42614;SDS011;28754;47.700;7.924;2023-08-01T10:01:09;4.38;;;2.22;;
42614;SDS011;28754;47.700;7.924;2023-08-01T10:03:56;4.20;;;2.17;;
42614;SDS011;28754;47.700;7.924;2023-08-01T10:06:46;4.47;;;1.75;;
42614;SDS011;28754;47.700;7.924;2023-08-01T10:09:36;2.70;;;1.50;;
42614;SDS011;28754;47.700;7.924;2023-08-01T10:12:25;4.15;;;1.90;;
42614;SDS011;28754;47.700;7.924;2023-08-01T10:15:13;2.13;;;1.30;;
42614;SDS011;28754;47.700;7.924;2023-08-01T10:18:01;3.80;;;2.00;;
42614;SDS011;28754;47.700;7.924;2023-08-01T10:20:50;3.90;;;1.83;;
42614;SDS011;28754;47.700;7.924;2023-08-01T10:23:37;4.45;;;1.75;;
42614;SDS011;28754;47.700;7.924;2023-08-01T10:26:25;2.80;;;1.40;;
42614;SDS011;28754;47.700;7.924;2023-08-01T10:29:12;2.42;;;1.88;;
42614;SDS011;28754;47.700;7.924;2023-08-01T10:31:59;3.15;;;1.80;;
42614;SDS011;28754;47.700;7.924;2023-08-01T10:34:52;3.15;;;1.20;;
42614;SDS011;28754;47.700;7.924;2023-08-01T10:37:39;5.63;;;1.90;;
42614;SDS011;28754;47.700;7.924;2023-08-01T10:40:33;2.28;;;1.33;;
42614;SDS011;28754;47.700;7.924;2023-08-01T10:43:26;1.70;;;1.13;;
42614;SDS011;28754;47.700;7.924;2023-08-01T10:46:12;2.08;;;1.45;;
42614;SDS011;28754;47.700;7.924;2023-08-01T10:48:59;1.73;;;1.30;;
42614;SDS011;28754;47.700;7.924;2023-08-01T10:51:46;1.30;;;1.00;;
42614;SDS011;28754;47.700;7.924;2023-08-01T10:54:33;2.20;;;1.38;;
42614;SDS011;28754;47.700;7.924;2023-08-01T10:57:23;2.45;;;1.42;;
42614;SDS011;28754;47.700;7.924;2023-08-01T11:00:10;1.90;;;0.98;;
42614;SDS011;28754;47.700;7.924;2023-08-01T11:03:02;2.83;;;1.35;;
42614;SDS011;28754;47.700;7.924;2023-08-01T11:05:56;2.58;;;1.23;;
42614;SDS011;28754;47.700;7.924;2023-08-01T11:08:43;4.50;;;1.77;;
42614;SDS011;28754;47.700;7.924;2023-08-01T11:11:30;1.55;;;0.90;;
42614;SDS011;28754;47.700;7.924;2023-08-01T11:14:19;2.72;;;1.63;;
42614;SDS011;28754;47.700;7.924;2023-08-01T11:17:11;1.50;;;0.90;;
42614;SDS011;28754;47.700;7.924;2023-08-01T11:20:05;1.08;;;0.77;;
42614;SDS011;28754;47.700;7.924;2023-08-01T11:22:58;1.95;;;1.27;;
42614;SDS011;28754;47.700;7.924;2023-08-01T11:25:48;1.40;;;1.10;;
42614;SDS011;28754;47.700;7.924;2023-08-01T11:28:36;2.20;;;1.30;;
42614;SDS011;28754;47.700;7.924;2023-08-01T11:31:23;2.20;;;1.30;;
42614;SDS011;28754;47.700;7.924;2023-08-01T11:34:10;2.53;;;1.38;;
42614;SDS011;28754;47.700;7.924;2023-08-01T11:36:57;1.60;;;1.10;;
42614;SDS011;28754;47.700;7.924;2023-08-01T11:39:45;8.25;;;2.53;;
42614;SDS011;28754;47.700;7.924;2023-08-01T11:42:34;2.83;;;1.30;;
42614;SDS011;28754;47.700;7.924;2023-08-01T11:45:20;1.95;;;1.15;;
42614;SDS011;28754;47.700;7.924;2023-08-01T11:48:07;2.85;;;1.13;;
42614;SDS011;28754;47.700;7.924;2023-08-01T11:50:57;1.42;;;0.85;;
42614;SDS011;28754;47.700;7.924;2023-08-01T11:53:45;1.52;;;1.15;;
42614;SDS011;28754;47.700;7.924;2023-08-01T11:56:32;1.90;;;1.40;;
42614;SDS011;28754;47.700;7.924;2023-08-01T11:59:19;1.58;;;1.08;;
42614;SDS011;28754;47.700;7.924;2023-08-01T12:02:06;3.40;;;1.30;;
42614;SDS011;28754;47.700;7.924;2023-08-01T12:04:53;2.22;;;1.55;;
42614;SDS011;28754;47.700;7.924;2023-08-01T12:07:40;1.50;;;1.10;;
42614;SDS011;28754;47.700;7.924;2023-08-01T12:10:36;3.95;;;1.33;;
42614;SDS011;28754;47.700;7.924;2023-08-01T12:13:27;2.60;;;1.42;;
42614;SDS011;28754;47.700;7.924;2023-08-01T12:16:13;6.22;;;1.30;;
42614;SDS011;28754;47.700;7.924;2023-08-01T12:19:06;4.53;;;0.60;;
42614;SDS011;28754;47.700;7.924;2023-08-01T12:21:55;9.95;;;1.05;;
42614;SDS011;28754;47.700;7.924;2023-08-01T12:24:41;17.27;;;1.50;;
42614;SDS011;28754;47.700;7.924;2023-08-01T12:27:28;8.45;;;1.13;;
42614;SDS011;28754;47.700;7.924;2023-08-01T12:30:15;93.90;;;6.78;;
42614;SDS011;28754;47.700;7.924;2023-08-01T12:33:02;15.77;;;1.50;;
42614;SDS011;28754;47.700;7.924;2023-08-01T12:35:48;1.35;;;0.95;;
42614;SDS011;28754;47.700;7.924;2023-08-01T12:38:35;6.07;;;1.33;;
42614;SDS011;28754;47.700;7.924;2023-08-01T12:41:22;16.40;;;1.83;;
42614;SDS011;28754;47.700;7.924;2023-08-01T12:44:08;128.38;;;8.07;;
42614;SDS011;28754;47.700;7.924;2023-08-01T12:46:55;12.18;;;1.20;;
42614;SDS011;28754;47.700;7.924;2023-08-01T12:49:44;0.93;;;0.60;;
42614;SDS011;28754;47.700;7.924;2023-08-01T12:52:35;31.25;;;2.90;;
42614;SDS011;28754;47.700;7.924;2023-08-01T12:55:22;15.38;;;1.60;;
42614;SDS011;28754;47.700;7.924;2023-08-01T12:58:09;113.05;;;6.40;;
42614;SDS011;28754;47.700;7.924;2023-08-01T13:00:55;0.80;;;0.80;;
42614;SDS011;28754;47.700;7.924;2023-08-01T13:03:42;1.10;;;0.68;;
42614;SDS011;28754;47.700;7.924;2023-08-01T13:06:29;1.73;;;1.00;;
42614;SDS011;28754;47.700;7.924;2023-08-01T13:09:15;2.05;;;0.60;;
42614;SDS011;28754;47.700;7.924;2023-08-01T13:12:02;0.93;;;0.60;;
42614;SDS011;28754;47.700;7.924;2023-08-01T13:14:50;1.25;;;0.60;;
42614;SDS011;28754;47.700;7.924;2023-08-01T13:17:41;1.20;;;0.77;;
42614;SDS011;28754;47.700;7.924;2023-08-01T13:20:28;0.80;;;0.55;;
42614;SDS011;28754;47.700;7.924;2023-08-01T13:23:15;1.23;;;0.60;;
42614;SDS011;28754;47.700;7.924;2023-08-01T13:26:02;1.55;;;0.63;;
42614;SDS011;28754;47.700;7.924;2023-08-01T13:28:49;2.30;;;0.82;;
42614;SDS011;28754;47.700;7.924;2023-08-01T13:31:35;1.27;;;0.82;;
42614;SDS011;28754;47.700;7.924;2023-08-01T13:34:22;0.82;;;0.70;;
42614;SDS011;28754;47.700;7.924;2023-08-01T13:37:10;0.98;;;0.60;;
42614;SDS011;28754;47.700;7.924;2023-08-01T13:39:59;0.93;;;0.60;;
42614;SDS011;28754;47.700;7.924;2023-08-01T13:46:07;1.23;;;0.90;;
42614;SDS011;28754;47.700;7.924;2023-08-01T13:49:38;1.52;;;0.70;;
42614;SDS011;28754;47.700;7.924;2023-08-01T13:52:27;1.95;;;1.30;;
42614;SDS011;28754;47.700;7.924;2023-08-01T13:55:23;1.15;;;0.80;;
42614;SDS011;28754;47.700;7.924;2023-08-01T13:58:27;1.08;;;0.80;;
42614;SDS011;28754;47.700;7.924;2023-08-01T14:01:19;0.75;;;0.70;;
42614;SDS011;28754;47.700;7.924;2023-08-01T14:04:06;1.60;;;1.00;;
42614;SDS011;28754;47.700;7.924;2023-08-01T14:07:03;1.88;;;1.10;;
42614;SDS011;28754;47.700;7.924;2023-08-01T14:13:06;1.92;;;1.15;;
42614;SDS011;28754;47.700;7.924;2023-08-01T14:15:53;1.48;;;1.15;;
42614;SDS011;28754;47.700;7.924;2023-08-01T14:18:39;1.13;;;0.93;;
42614;SDS011;28754;47.700;7.924;2023-08-01T14:21:36;1.73;;;0.75;;
42614;SDS011;28754;47.700;7.924;2023-08-01T14:24:26;2.60;;;1.10;;
42614;SDS011;28754;47.700;7.924;2023-08-01T14:27:18;1.48;;;0.68;;
42614;SDS011;28754;47.700;7.924;2023-08-01T14:30:08;1.25;;;0.73;;
42614;SDS011;28754;47.700;7.924;2023-08-01T14:33:05;1.98;;;1.20;;
42614;SDS011;28754;47.700;7.924;2023-08-01T14:43:09;1.35;;;0.88;;
42614;SDS011;28754;47.700;7.924;2023-08-01T14:46:22;1.50;;;0.98;;
42614;SDS011;28754;47.700;7.924;2023-08-01T14:50:31;1.48;;;0.90;;
42614;SDS011;28754;47.700;7.924;2023-08-01T14:53:39;1.30;;;0.98;;
42614;SDS011;28754;47.700;7.924;2023-08-01T14:56:25;2.28;;;1.60;;
42614;SDS011;28754;47.700;7.924;2023-08-01T14:59:11;1.88;;;1.23;;
42614;SDS011;28754;47.700;7.924;2023-08-01T15:01:58;1.60;;;1.13;;
42614;SDS011;28754;47.700;7.924;2023-08-01T15:04:45;2.67;;;1.20;;
42614;SDS011;28754;47.700;7.924;2023-08-01T15:07:37;3.80;;;0.90;;
42614;SDS011;28754;47.700;7.924;2023-08-01T15:10:31;2.05;;;1.38;;
42614;SDS011;28754;47.700;7.924;2023-08-01T15:13:18;2.33;;;1.48;;
42614;SDS011;28754;47.700;7.924;2023-08-01T15:16:08;2.13;;;1.33;;
42614;SDS011;28754;47.700;7.924;2023-08-01T15:18:57;1.80;;;1.20;;
42614;SDS011;28754;47.700;7.924;2023-08-01T15:21:46;1.95;;;1.20;;
42614;SDS011;28754;47.700;7.924;2023-08-01T15:24:33;3.03;;;1.98;;
42614;SDS011;28754;47.700;7.924;2023-08-01T15:27:20;1.83;;;1.40;;
42614;SDS011;28754;47.700;7.924;2023-08-01T15:30:07;2.40;;;1.75;;
42614;SDS011;28754;47.700;7.924;2023-08-01T15:32:54;2.95;;;1.45;;
42614;SDS011;28754;47.700;7.924;2023-08-01T15:35:41;2.22;;;1.63;;
42614;SDS011;28754;47.700;7.924;2023-08-01T15:38:29;2.10;;;1.58;;
42614;SDS011;28754;47.700;7.924;2023-08-01T15:41:17;2.13;;;1.38;;
42614;SDS011;28754;47.700;7.924;2023-08-01T15:44:04;2.08;;;1.50;;
42614;SDS011;28754;47.700;7.924;2023-08-01T15:46:51;2.78;;;1.60;;
42614;SDS011;28754;47.700;7.924;2023-08-01T15:49:37;2.00;;;1.42;;
42614;SDS011;28754;47.700;7.924;2023-08-01T15:52:24;2.35;;;1.50;;
42614;SDS011;28754;47.700;7.924;2023-08-01T15:55:11;2.08;;;1.48;;
42614;SDS011;28754;47.700;7.924;2023-08-01T15:57:57;1.33;;;0.90;;
42614;SDS011;28754;47.700;7.924;2023-08-01T16:00:44;1.00;;;0.80;;
42614;SDS011;28754;47.700;7.924;2023-08-01T16:03:31;1.13;;;0.65;;
42614;SDS011;28754;47.700;7.924;2023-08-01T16:06:17;2.50;;;1.20;;
42614;SDS011;28754;47.700;7.924;2023-08-01T16:09:04;2.17;;;1.20;;
42614;SDS011;28754;47.700;7.924;2023-08-01T16:11:51;1.90;;;1.42;;
42614;SDS011;28754;47.700;7.924;2023-08-01T16:14:38;2.28;;;1.25;;
42614;SDS011;28754;47.700;7.924;2023-08-01T16:17:24;2.08;;;1.20;;
42614;SDS011;28754;47.700;7.924;2023-08-01T16:20:11;1.63;;;1.23;;
42614;SDS011;28754;47.700;7.924;2023-08-01T16:22:58;2.28;;;1.00;;
42614;SDS011;28754;47.700;7.924;2023-08-01T16:25:45;1.85;;;1.20;;
42614;SDS011;28754;47.700;7.924;2023-08-01T16:28:31;3.30;;;1.17;;
42614;SDS011;28754;47.700;7.924;2023-08-01T16:31:18;1.55;;;1.00;;
42614;SDS011;28754;47.700;7.924;2023-08-01T16:34:05;2.05;;;1.23;;
42614;SDS011;28754;47.700;7.924;2023-08-01T16:36:51;3.30;;;1.20;;
42614;SDS011;28754;47.700;7.924;2023-08-01T16:39:38;2.22;;;1.25;;
42614;SDS011;28754;47.700;7.924;2023-08-01T16:42:33;1.27;;;1.10;;
42614;SDS011;28754;47.700;7.924;2023-08-01T16:45:22;2.03;;;1.52;;
42614;SDS011;28754;47.700;7.924;2023-08-01T16:48:09;1.52;;;1.27;;
42614;SDS011;28754;47.700;7.924;2023-08-01T16:50:56;1.73;;;1.15;;
42614;SDS011;28754;47.700;7.924;2023-08-01T16:53:44;1.67;;;1.33;;
42614;SDS011;28754;47.700;7.924;2023-08-01T16:56:31;1.40;;;1.00;;
42614;SDS011;28754;47.700;7.924;2023-08-01T16:59:17;1.92;;;1.15;;
42614;SDS011;28754;47.700;7.924;2023-08-01T17:02:07;1.45;;;1.00;;
42614;SDS011;28754;47.700;7.924;2023-08-01T17:04:55;2.85;;;1.40;;
42614;SDS011;28754;47.700;7.924;2023-08-01T17:07:46;2.75;;;1.30;;
42614;SDS011;28754;47.700;7.924;2023-08-01T17:10:36;2.00;;;1.08;;
42614;SDS011;28754;47.700;7.924;2023-08-01T17:13:25;2.58;;;0.90;;
42614;SDS011;28754;47.700;7.924;2023-08-01T17:16:14;1.75;;;0.80;;
42614;SDS011;28754;47.700;7.924;2023-08-01T17:19:03;1.65;;;0.90;;
42614;SDS011;28754;47.700;7.924;2023-08-01T17:21:50;1.80;;;1.15;;
42614;SDS011;28754;47.700;7.924;2023-08-01T17:24:36;2.33;;;0.90;;